Time;durP1;ratioP1;P1;durP2;ratioP2;P2;SDS_P1;SDS_P2;PMS_P1;PMS_P2;Temp;Humidity;BMP_temperature;BMP_pressure;BME280_temperature;BME280_humidity;BME280_pressure;Samples;Min_cycle;Max_cycle;Signal;HPM_P1;HPM_P2
2024/01/12 00:01:23;;;;;;;14.73;6.13;;;;;;;-141.97;57.90;46339.16;4992332;28;20181;-87
2024/01/12 00:03:49;;;;;;;13.33;5.80;;;;;;;-141.97;57.52;46262.28;4992167;28;20230;-87
2024/01/12 00:06:15;;;;;;;13.43;7.17;;;;;;;-141.97;57.41;46077.84;5009463;28;20437;-86
2024/01/12 00:08:40;;;;;;;13.10;6.83;;;;;;;-141.97;57.04;46145.09;4991875;28;20745;-87
2024/01/12 00:11:09;;;;;;;16.63;7.07;;;;;;;-141.97;57.48;46243.09;4991898;28;20252;-87
2024/01/12 00:13:35;;;;;;;12.47;6.90;;;;;;;-141.97;58.13;46573.56;4992024;28;20309;-88
2024/01/12 00:16:07;;;;;;;11.57;6.03;;;;;;;-141.97;57.47;46323.78;4991831;28;20501;-87
2024/01/12 00:18:33;;;;;;;12.60;6.40;;;;;;;-141.97;57.10;46702.31;5009340;28;20254;-87
2024/01/12 00:20:58;;;;;;;19.03;8.47;;;;;;;-141.97;58.01;46239.25;4992082;28;20406;-87
2024/01/12 00:23:24;;;;;;;15.50;7.37;;;;;;;-141.97;58.70;46621.59;4996757;28;20413;-87
2024/01/12 00:25:49;;;;;;;15.37;7.70;;;;;;;-141.97;59.66;46319.94;5012217;28;20261;-87
2024/01/12 00:28:15;;;;;;;17.23;7.50;;;;;;;-141.97;60.42;46200.81;4998285;28;20178;-87
2024/01/12 00:30:40;;;;;;;14.60;6.80;;;;;;;-141.97;60.81;46212.34;5017360;28;20274;-87
2024/01/12 00:33:05;;;;;;;14.83;7.10;;;;;;;-141.97;60.50;46122.03;4998267;28;20251;-87
2024/01/12 00:35:31;;;;;;;16.67;7.83;;;;;;;-141.97;60.38;46083.63;4997690;28;20273;-88
2024/01/12 00:37:57;;;;;;;13.73;6.77;;;;;;;-141.97;60.12;46170.06;5013062;28;20229;-88
2024/01/12 00:40:23;;;;;;;11.10;5.03;;;;;;;-141.97;58.11;46208.50;4995334;28;20289;-88
2024/01/12 00:42:50;;;;;;;13.87;7.93;;;;;;;-141.97;57.47;46671.56;4995708;28;20183;-88
2024/01/12 00:45:16;;;;;;;13.10;6.30;;;;;;;-141.97;57.41;46122.03;4995630;28;20416;-89
2024/01/12 00:47:42;;;;;;;14.53;5.67;;;;;;;-141.97;57.66;46337.22;5012971;28;20504;-86
2024/01/12 00:50:08;;;;;;;14.07;7.47;;;;;;;-141.97;58.29;46660.03;5012909;28;20479;-88
2024/01/12 00:52:34;;;;;;;14.97;6.77;;;;;;;-141.97;58.59;46183.53;5013018;28;20178;-86
2024/01/12 00:54:59;;;;;;;14.57;7.20;;;;;;;-141.97;59.42;46319.94;4995392;28;20410;-87
2024/01/12 00:57:25;;;;;;;11.80;6.23;;;;;;;-141.97;59.62;46321.84;4994617;28;20265;-87
2024/01/12 00:59:50;;;;;;;14.53;7.40;;;;;;;-141.97;59.34;46300.72;5012563;28;20214;-87
2024/01/12 01:02:16;;;;;;;14.67;7.30;;;;;;;-141.97;57.79;46696.53;4994757;28;20167;-87
2024/01/12 01:04:41;;;;;;;10.07;4.97;;;;;;;-141.97;57.00;46135.50;4994826;28;20166;-87
2024/01/12 01:07:07;;;;;;;15.87;6.80;;;;;;;-141.97;55.41;46245.00;4994916;28;20167;-87
2024/01/12 01:09:32;;;;;;;9.37;4.97;;;;;;;-141.97;55.03;46269.97;4994965;28;20209;-86
2024/01/12 01:11:57;;;;;;;11.83;6.93;;;;;;;-141.97;53.94;46116.28;4994906;28;20233;-85
2024/01/12 01:14:24;;;;;;;11.60;6.10;;;;;;;-141.97;53.03;46350.69;4994932;28;20260;-86
2024/01/12 01:16:51;;;;;;;10.07;5.60;;;;;;;-141.97;52.57;46120.13;5012592;28;20241;-87
2024/01/12 01:19:17;;;;;;;13.07;6.27;;;;;;;-141.97;52.31;46316.09;5012291;28;20489;-87
2024/01/12 01:21:42;;;;;;;14.20;5.83;;;;;;;-141.97;53.07;46097.06;4994807;28;20888;-87
2024/01/12 01:24:08;;;;;;;11.33;5.50;;;;;;;-141.97;53.38;46237.31;5012324;28;20175;-86
2024/01/12 01:26:33;;;;;;;12.93;6.03;;;;;;;-141.97;52.52;46323.78;5012042;28;20647;-86
2024/01/12 01:28:59;;;;;;;13.40;6.13;;;;;;;-141.97;51.70;46120.13;4994399;28;20221;-87
2024/01/12 01:31:25;;;;;;;10.23;5.73;;;;;;;-141.97;52.68;46177.75;5012103;28;20265;-87
2024/01/12 01:33:50;;;;;;;8.80;4.97;;;;;;;-141.97;52.65;46177.75;5012013;28;20619;-87
2024/01/12 01:36:16;;;;;;;12.10;6.37;;;;;;;-141.97;52.83;46321.84;4994452;28;20408;-87
2024/01/12 01:38:41;;;;;;;13.77;6.50;;;;;;;-141.97;52.54;46245.00;4994430;28;20178;-87
2024/01/12 01:41:07;;;;;;;10.60;5.10;;;;;;;-141.97;52.41;46145.09;4994159;28;20170;-88
2024/01/12 01:43:33;;;;;;;11.03;6.10;;;;;;;-141.97;51.55;46681.16;4994179;28;20206;-87
2024/01/12 01:45:59;;;;;;;12.57;5.37;;;;;;;-141.97;51.36;46027.91;5011977;28;20620;-89
2024/01/12 01:48:25;;;;;;;10.63;5.13;;;;;;;-141.97;51.91;46554.34;4993975;28;20248;-87
2024/01/12 01:50:52;;;;;;;11.57;5.77;;;;;;;-141.97;52.29;46037.50;4994040;28;20980;-87
2024/01/12 01:53:18;;;;;;;12.17;5.50;;;;;;;-141.97;52.26;46141.25;4994336;28;20317;-87
2024/01/12 01:55:44;;;;;;;12.80;6.13;;;;;;;-141.97;52.94;46335.31;4993804;28;20497;-86
2024/01/12 01:58:10;;;;;;;12.43;5.20;;;;;;;-141.97;53.38;46452.50;5011499;28;20357;-87
2024/01/12 02:00:36;;;;;;;12.37;5.83;;;;;;;-141.97;54.12;46554.34;5011515;28;20843;-86
2024/01/12 02:03:02;;;;;;;14.43;7.00;;;;;;;-141.97;55.01;46329.53;4993883;28;20173;-86
2024/01/12 02:05:29;;;;;;;12.10;6.07;;;;;;;-141.97;55.81;46306.50;4994188;28;20410;-88
2024/01/12 02:07:56;;;;;;;16.47;8.67;;;;;;;-141.97;56.49;46354.53;4994982;28;20790;-88
2024/01/12 02:10:22;;;;;;;15.87;7.97;;;;;;;-141.97;56.19;46202.72;5012711;28;20480;-89
2024/01/12 02:12:48;;;;;;;13.03;6.23;;;;;;;-141.97;55.53;46243.09;5011792;28;20394;-88
2024/01/12 02:15:14;;;;;;;13.00;6.83;;;;;;;-141.97;54.12;46656.19;4993810;28;20542;-88
2024/01/12 02:17:41;;;;;;;13.43;6.33;;;;;;;-141.97;52.78;46335.31;4993915;28;20166;-89
2024/01/12 02:20:07;;;;;;;11.77;5.93;;;;;;;-141.97;52.82;46108.59;4994446;28;20949;-88
2024/01/12 02:22:32;;;;;;;13.47;6.00;;;;;;;-141.97;52.50;46024.06;4994799;28;20202;-87
2024/01/12 02:24:58;;;;;;;9.87;5.50;;;;;;;-141.97;52.60;46765.72;4994562;28;20260;-88
2024/01/12 02:27:24;;;;;;;14.57;6.13;;;;;;;-141.97;52.94;46548.59;4995226;28;20177;-90
2024/01/12 02:29:53;;;;;;;10.93;5.57;;;;;;;-141.97;54.25;46306.50;4994657;28;20550;-88
2024/01/12 02:32:18;;;;;;;14.00;5.80;;;;;;;-141.97;54.73;46143.19;4988933;28;20263;-89
2024/01/12 02:34:44;;;;;;;11.77;6.87;;;;;;;-141.97;55.05;46646.59;5006854;28;20493;-89
2024/01/12 02:37:09;;;;;;;12.00;6.47;;;;;;;-141.97;55.18;46252.69;5006666;28;20254;-89
2024/01/12 02:39:34;;;;;;;12.47;6.07;;;;;;;-141.97;55.41;46262.28;5006904;28;20182;-89
2024/01/12 02:42:00;;;;;;;15.83;5.90;;;;;;;-141.97;55.38;46135.50;4990749;28;20168;-89
2024/01/12 02:44:25;;;;;;;17.77;8.63;;;;;;;-141.97;55.70;46158.53;5010507;28;20240;-89
2024/01/12 02:46:51;;;;;;;13.93;7.17;;;;;;;-141.97;55.40;46562.03;5014070;28;20167;-89
2024/01/12 02:49:16;;;;;;;16.27;6.30;;;;;;;-141.97;55.26;46285.34;5013199;28;20168;-89
2024/01/12 02:51:42;;;;;;;12.63;6.30;;;;;;;-141.97;54.57;46246.94;4993234;28;20241;-88
2024/01/12 02:54:07;;;;;;;11.83;5.47;;;;;;;-141.97;54.23;46642.75;4992542;28;20177;-87
2024/01/12 02:56:33;;;;;;;15.50;7.23;;;;;;;-141.97;54.03;46323.78;4991978;28;20171;-88
2024/01/12 02:58:58;;;;;;;12.33;6.20;;;;;;;-141.97;54.37;46358.38;4989940;28;20230;-88
2024/01/12 03:01:24;;;;;;;14.53;7.23;;;;;;;-141.97;53.73;46066.31;5006351;28;20186;-87
2024/01/12 03:03:49;;;;;;;12.50;5.00;;;;;;;-141.97;53.41;46093.22;5005918;28;20225;-88
2024/01/12 03:06:14;;;;;;;13.47;6.67;;;;;;;-141.97;53.69;46273.81;4990458;28;20164;-88
2024/01/12 03:08:40;;;;;;;13.97;6.93;;;;;;;-141.97;53.15;46172.00;5007008;28;20175;-88
2024/01/12 03:11:06;;;;;;;14.10;7.77;;;;;;;-141.97;53.05;46646.59;4991050;28;20712;-88
2024/01/12 03:13:33;;;;;;;12.80;5.83;;;;;;;-141.97;53.30;46638.91;5006662;28;20620;-88
2024/01/12 03:15:58;;;;;;;15.20;7.10;;;;;;;-141.97;52.75;46150.84;5002030;28;20162;-88
2024/01/12 03:18:24;;;;;;;13.03;6.07;;;;;;;-141.97;51.99;46293.03;5013748;28;20415;-88
2024/01/12 03:20:49;;;;;;;15.83;7.70;;;;;;;-141.97;52.08;46719.59;5019237;28;20179;-88
2024/01/12 03:23:15;;;;;;;11.07;5.87;;;;;;;-141.97;52.36;46573.56;4995802;28;20642;-86
2024/01/12 03:25:40;;;;;;;14.37;7.50;;;;;;;-141.97;52.52;46143.19;4993791;28;20312;-89
2024/01/12 03:28:08;;;;;;;14.23;6.50;;;;;;;-141.97;52.35;46692.69;5008529;28;20198;-88
2024/01/12 03:30:34;;;;;;;11.80;6.40;;;;;;;-141.97;52.00;46248.84;5007610;28;20241;-87
2024/01/12 03:32:59;;;;;;;11.07;6.13;;;;;;;-141.97;52.08;46123.97;4991556;28;20538;-87
2024/01/12 03:35:25;;;;;;;11.50;6.07;;;;;;;-141.97;51.61;46642.75;4993082;28;20627;-87
2024/01/12 03:37:50;;;;;;;14.30;6.13;;;;;;;-141.97;51.51;46216.19;4994208;28;20619;-87
2024/01/12 03:40:15;;;;;;;14.87;7.67;;;;;;;-141.97;51.09;46150.84;5011761;28;20169;-87
2024/01/12 03:42:41;;;;;;;12.30;6.20;;;;;;;-141.97;51.19;46433.28;5011836;28;20253;-87
2024/01/12 03:45:07;;;;;;;10.67;6.27;;;;;;;-141.97;51.46;46173.91;4993734;28;20218;-87
2024/01/12 03:47:32;;;;;;;14.53;7.43;;;;;;;-141.97;52.13;46116.28;4992918;28;20276;-87
2024/01/12 03:49:58;;;;;;;16.57;7.67;;;;;;;-141.97;52.23;46281.50;5009847;28;20932;-87
2024/01/12 03:52:23;;;;;;;9.57;5.30;;;;;;;-141.97;52.00;46469.81;4992970;28;20178;-86
2024/01/12 03:54:49;;;;;;;10.93;6.00;;;;;;;-141.97;52.11;46212.34;5010424;28;20167;-88
2024/01/12 03:57:14;;;;;;;14.60;7.23;;;;;;;-141.97;51.85;46204.66;5010546;28;20718;-87
2024/01/12 03:59:40;;;;;;;12.17;6.70;;;;;;;-141.97;51.14;46097.06;4997056;28;20189;-87
2024/01/12 04:02:06;;;;;;;12.93;6.33;;;;;;;-141.97;50.64;46196.97;4998024;28;20174;-88
2024/01/12 04:04:31;;;;;;;12.57;6.03;;;;;;;-141.97;50.32;46183.53;4997021;28;20420;-87
2024/01/12 04:06:57;;;;;;;14.63;7.47;;;;;;;-141.97;50.50;46638.91;4996198;28;20171;-89
2024/01/12 04:09:22;;;;;;;12.53;5.67;;;;;;;-141.97;50.59;46635.06;4995869;28;20179;-88
2024/01/12 04:11:48;;;;;;;10.73;5.60;;;;;;;-141.97;50.68;46331.47;4995869;28;20175;-87
2024/01/12 04:14:13;;;;;;;15.00;7.73;;;;;;;-141.97;50.52;46243.09;5013846;28;20240;-88
2024/01/12 04:16:38;;;;;;;11.13;5.47;;;;;;;-141.97;50.61;46250.78;5013829;28;20611;-89
2024/01/12 04:19:04;;;;;;;15.73;8.23;;;;;;;-141.97;50.81;46223.88;4995910;28;20175;-90
2024/01/12 04:21:29;;;;;;;14.97;6.67;;;;;;;-141.97;50.67;46200.81;5013606;28;20163;-92
2024/01/12 04:23:55;;;;;;;18.70;7.67;;;;;;;-141.97;51.34;46227.72;4995899;28;20179;-89
2024/01/12 04:26:20;;;;;;;12.70;6.00;;;;;;;-141.97;51.59;46116.28;4995691;28;20171;-89
2024/01/12 04:28:46;;;;;;;16.27;6.03;;;;;;;-141.97;51.45;46654.28;5013714;28;20623;-91
2024/01/12 04:31:11;;;;;;;13.77;6.17;;;;;;;-141.97;51.28;46262.28;4995947;28;20572;-89
2024/01/12 04:33:37;;;;;;;11.43;5.60;;;;;;;-141.97;51.15;46640.81;4996101;28;20179;-89
2024/01/12 04:36:06;;;;;;;13.60;5.97;;;;;;;-141.97;50.74;46258.44;4997027;28;20263;-88
2024/01/12 04:38:32;;;;;;;11.52;6.28;;;;;;;-141.97;49.22;46400.63;4996081;28;20171;-89
2024/01/12 04:40:57;;;;;;;14.87;6.27;;;;;;;-141.97;49.39;46198.91;4995256;28;20614;-87
2024/01/12 04:43:22;;;;;;;13.80;6.10;;;;;;;-141.97;49.22;46196.97;4997862;28;20214;-89
2024/01/12 04:45:48;;;;;;;12.53;5.93;;;;;;;-141.97;49.73;46323.78;5013767;28;20250;-87
2024/01/12 04:48:13;;;;;;;12.80;6.17;;;;;;;-141.97;49.80;46318.00;4995402;28;20175;-88
2024/01/12 04:50:38;;;;;;;17.30;7.87;;;;;;;-141.97;50.09;46152.78;4997313;28;20213;-89
2024/01/12 04:53:04;;;;;;;15.23;7.57;;;;;;;-141.97;50.23;46158.53;5013404;28;20500;-89
2024/01/12 04:55:29;;;;;;;17.67;8.23;;;;;;;-141.97;50.56;46615.84;4996862;28;20221;-88
2024/01/12 04:57:55;;;;;;;10.83;4.93;;;;;;;-141.97;50.85;46258.44;4995724;28;20246;-88
2024/01/12 05:00:21;;;;;;;8.90;5.23;;;;;;;-141.97;50.88;46227.72;4995462;28;20258;-87
2024/01/12 05:02:46;;;;;;;14.07;7.33;;;;;;;-141.97;50.81;46669.63;4995009;28;20706;-87
2024/01/12 05:05:12;;;;;;;13.73;7.00;;;;;;;-141.97;50.94;46679.25;5012744;28;20159;-87
2024/01/12 05:07:37;;;;;;;22.77;10.47;;;;;;;-141.97;51.07;46271.91;5012131;28;20167;-87
2024/01/12 05:10:04;;;;;;;19.77;8.23;;;;;;;-141.97;50.96;46112.44;4994381;28;20277;-88
2024/01/12 05:12:30;;;;;;;15.30;7.80;;;;;;;-141.97;51.21;46550.50;4995498;28;20672;-87
2024/01/12 05:14:55;;;;;;;14.77;7.60;;;;;;;-141.97;51.78;46214.25;5012696;28;20418;-87
2024/01/12 05:17:22;;;;;;;16.77;7.67;;;;;;;-141.97;50.96;46268.06;4994767;28;20167;-88
2024/01/12 05:19:48;;;;;;;30.55;12.68;;;;;;;-141.97;51.56;46635.06;4994531;28;20167;-87
2024/01/12 05:22:13;;;;;;;12.93;7.37;;;;;;;-141.97;51.16;46285.34;4994665;28;20269;-88
2024/01/12 05:24:39;;;;;;;13.93;6.70;;;;;;;-141.97;50.45;46227.72;5012702;28;20167;-87
2024/01/12 05:27:04;;;;;;;23.77;10.67;;;;;;;-141.97;50.69;46631.22;4994775;28;20245;-86
2024/01/12 05:29:29;;;;;;;13.47;7.77;;;;;;;-141.97;50.20;46114.34;4994458;28;20555;-88
2024/01/12 05:31:55;;;;;;;16.47;7.87;;;;;;;-141.97;50.43;46235.41;5012387;28;20163;-89
2024/01/12 05:34:20;;;;;;;13.47;7.40;;;;;;;-141.97;50.86;46610.06;5012016;28;20545;-88
2024/01/12 05:36:46;;;;;;;12.43;6.40;;;;;;;-141.97;50.38;46150.84;4994444;28;20167;-88
2024/01/12 05:39:11;;;;;;;18.73;8.17;;;;;;;-141.97;50.02;46139.34;4994435;28;20631;-88
2024/01/12 05:41:37;;;;;;;12.63;7.00;;;;;;;-141.97;49.93;46656.19;4994448;28;20159;-87
2024/01/12 05:44:02;;;;;;;10.53;5.57;;;;;;;-141.97;50.12;46164.31;4994367;28;20177;-88
2024/01/12 05:46:27;;;;;;;18.57;7.90;;;;;;;-141.97;49.71;46147.03;4994389;28;20166;-88
2024/01/12 05:48:54;;;;;;;13.27;6.30;;;;;;;-141.97;49.94;46343.00;4997093;28;20179;-88
2024/01/12 05:51:20;;;;;;;11.13;6.38;;;;;;;-141.97;49.50;46343.00;4999203;28;20282;-88
2024/01/12 05:53:45;;;;;;;13.20;7.95;;;;;;;-141.97;49.28;46212.34;5012522;28;20233;-87
2024/01/12 05:56:11;;;;;;;13.17;6.03;;;;;;;-141.97;49.31;46191.22;4994604;28;20175;-87
2024/01/12 05:58:36;;;;;;;12.77;7.13;;;;;;;-141.97;49.24;46252.69;4996554;28;20218;-87
2024/01/12 06:01:02;;;;;;;16.70;8.57;;;;;;;-141.97;49.50;46600.47;5000361;28;20201;-88
2024/01/12 06:03:30;;;;;;;16.87;8.13;;;;;;;-141.97;49.83;46660.03;4994189;28;20186;-88
2024/01/12 06:05:56;;;;;;;20.03;9.00;;;;;;;-141.97;50.47;46343.00;4993728;28;20260;-89
2024/01/12 06:08:22;;;;;;;16.77;8.73;;;;;;;-141.97;50.34;46325.69;4995335;28;20877;-89
2024/01/12 06:10:47;;;;;;;21.97;11.37;;;;;;;-141.97;50.00;46216.19;4993550;28;20219;-87
2024/01/12 06:13:16;;;;;;;14.23;7.33;;;;;;;-141.97;49.77;46133.56;4996081;28;20175;-91
2024/01/12 06:15:42;;;;;;;18.55;9.68;;;;;;;-141.97;50.89;46258.44;5017756;28;20178;-92
2024/01/12 06:18:13;;;;;;;26.37;12.47;;;;;;;-141.97;51.00;46335.31;5018131;28;20174;-92
2024/01/12 06:20:44;;;;;;;17.37;7.70;;;;;;;-141.97;51.17;46485.19;5017426;28;20159;-94
2024/01/12 06:23:13;;;;;;;22.73;12.05;;;;;;;-141.97;51.74;46481.34;5014004;28;20430;-92
2024/01/12 06:25:39;;;;;;;22.40;10.40;;;;;;;-141.97;51.50;46675.41;4974153;28;20323;-87
2024/01/12 06:28:04;;;;;;;23.80;10.73;;;;;;;-141.97;51.59;46625.44;4973408;28;20187;-88
2024/01/12 06:30:31;;;;;;;21.27;11.10;;;;;;;-141.97;51.78;46166.22;4989026;28;20202;-88
2024/01/12 06:32:57;;;;;;;25.50;12.50;;;;;;;-141.97;51.79;46300.72;4973382;28;20545;-88
2024/01/12 06:35:22;;;;;;;16.60;7.47;;;;;;;-141.97;51.19;46408.31;4989208;28;20410;-89
2024/01/12 06:37:48;;;;;;;15.67;7.70;;;;;;;-141.97;50.84;46154.69;4991128;28;20325;-90
2024/01/12 06:40:13;;;;;;;11.40;6.80;;;;;;;-141.97;50.16;46231.56;4980860;28;20195;-88
2024/01/12 06:42:38;;;;;;;15.40;8.13;;;;;;;-141.97;50.34;46327.63;4987402;28;20199;-89
2024/01/12 06:45:07;;;;;;;13.07;7.57;;;;;;;-141.97;50.12;46141.25;4973466;28;20176;-87
2024/01/12 06:47:33;;;;;;;20.00;9.63;;;;;;;-141.97;49.99;46600.47;4977190;28;20167;-88
2024/01/12 06:49:59;;;;;;;16.13;7.63;;;;;;;-141.97;50.46;46704.22;4993144;28;20450;-87
2024/01/12 06:52:24;;;;;;;23.27;10.87;;;;;;;-141.97;50.45;46043.28;4978780;28;20249;-89
2024/01/12 06:54:49;;;;;;;20.83;9.63;;;;;;;-141.97;50.54;46135.50;4989000;28;20191;-88
2024/01/12 06:57:15;;;;;;;19.50;8.77;;;;;;;-141.97;49.71;46617.75;5010375;28;20223;-88
2024/01/12 06:59:40;;;;;;;24.37;11.60;;;;;;;-141.97;50.38;46181.59;4993459;28;20166;-89
2024/01/12 07:02:07;;;;;;;22.23;10.70;;;;;;;-141.97;50.47;46123.97;5010629;28;20189;-90
2024/01/12 07:04:32;;;;;;;23.60;8.80;;;;;;;-141.97;50.08;46615.84;4993389;28;20171;-88
2024/01/12 07:06:58;;;;;;;17.70;7.83;;;;;;;-141.97;49.61;46148.94;5015112;28;20401;-89
2024/01/12 07:09:24;;;;;;;17.30;8.37;;;;;;;-141.97;48.95;46104.75;5002045;28;20179;-88
2024/01/12 07:11:49;;;;;;;18.80;9.13;;;;;;;-141.97;48.09;46172.00;5010621;28;20170;-88
2024/01/12 07:14:15;;;;;;;25.40;11.33;;;;;;;-141.97;46.13;46145.09;4995031;28;20163;-89
2024/01/12 07:16:41;;;;;;;24.10;11.60;;;;;;;-141.97;43.00;46535.13;5012121;28;20250;-90
2024/01/12 07:19:09;;;;;;;29.43;12.50;;;;;;;-141.97;42.61;46035.59;4994790;28;20232;-89
2024/01/12 07:21:35;;;;;;;29.13;13.37;;;;;;;-141.97;41.74;46158.53;4995429;28;20171;-89
2024/01/12 07:24:02;;;;;;;27.53;11.37;;;;;;;-141.97;41.18;46235.41;5020293;28;20481;-89
2024/01/12 07:26:27;;;;;;;30.03;13.77;;;;;;;-141.97;42.95;46606.22;4996104;28;20270;-89
2024/01/12 07:28:53;;;;;;;24.53;11.53;;;;;;;-141.97;44.36;46538.97;4993864;28;20622;-89
2024/01/12 07:31:18;;;;;;;17.40;7.97;;;;;;;-141.97;45.57;46112.44;4992313;28;20204;-89
2024/01/12 07:33:44;;;;;;;19.10;8.83;;;;;;;-141.97;45.89;46264.22;5010171;28;20151;-89
2024/01/12 07:36:10;;;;;;;20.37;10.10;;;;;;;-141.97;46.39;46208.50;5011589;28;20681;-89
2024/01/12 07:38:36;;;;;;;20.30;9.13;;;;;;;-141.97;46.56;46285.34;5011548;28;20193;-88
2024/01/12 07:41:01;;;;;;;20.47;9.67;;;;;;;-141.97;46.73;46308.41;5013802;28;20163;-89
2024/01/12 07:43:33;;;;;;;19.27;9.40;;;;;;;-141.97;47.45;46291.13;4996752;28;20174;-89
2024/01/12 07:45:59;;;;;;;22.97;9.50;;;;;;;-141.97;47.28;46654.28;4997957;28;20163;-89
2024/01/12 07:48:25;;;;;;;30.10;14.47;;;;;;;-141.97;47.42;46204.66;4995369;28;20405;-90
2024/01/12 07:50:50;;;;;;;19.33;8.97;;;;;;;-141.97;47.24;46231.56;5012100;28;20446;-90
2024/01/12 07:53:16;;;;;;;19.83;9.30;;;;;;;-141.97;47.13;46210.41;5012222;28;20402;-90
2024/01/12 07:55:41;;;;;;;20.27;8.33;;;;;;;-141.97;47.83;46106.66;5012910;28;20177;-88
2024/01/12 07:58:07;;;;;;;23.70;10.00;;;;;;;-141.97;48.13;46250.78;4993986;28;20622;-90
2024/01/12 08:00:32;;;;;;;15.70;7.70;;;;;;;-141.97;48.35;46193.13;4995486;28;20247;-88
2024/01/12 08:02:58;;;;;;;15.87;7.77;;;;;;;-141.97;48.35;46085.53;5015806;28;20163;-89
2024/01/12 08:05:23;;;;;;;18.20;8.57;;;;;;;-141.97;47.64;46612.00;5005622;28;20166;-89
2024/01/12 08:07:49;;;;;;;18.53;8.63;;;;;;;-141.97;48.08;46279.59;5031678;28;20179;-89
2024/01/12 08:10:16;;;;;;;17.73;8.23;;;;;;;-141.97;47.57;46281.50;5033033;28;20209;-90
2024/01/12 08:12:41;;;;;;;19.70;8.83;;;;;;;-141.97;47.25;45916.47;5004231;28;20456;-90
2024/01/12 08:15:10;;;;;;;19.13;9.10;;;;;;;-141.97;47.21;46081.69;5004217;28;20422;-89
2024/01/12 08:17:37;;;;;;;16.53;8.17;;;;;;;-141.97;46.73;46519.75;4997743;28;20186;-89
2024/01/12 08:20:03;;;;;;;18.90;8.70;;;;;;;-141.97;46.24;46512.06;5022620;28;20420;-90
2024/01/12 08:22:29;;;;;;;19.17;9.70;;;;;;;-141.97;46.31;45931.84;5018405;28;20422;-90
2024/01/12 08:24:54;;;;;;;25.70;12.03;;;;;;;-141.97;46.05;46492.88;4993628;28;20162;-87
2024/01/12 08:27:20;;;;;;;24.80;11.70;;;;;;;-141.97;46.11;46150.84;5000242;28;20182;-93
2024/01/12 08:29:45;;;;;;;19.00;9.30;;;;;;;-141.97;45.51;46233.47;5014490;28;20218;-91
2024/01/12 08:32:11;;;;;;;20.07;9.37;;;;;;;-141.97;44.35;46054.81;5000837;28;20201;-93
2024/01/12 08:34:40;;;;;;;23.10;11.13;;;;;;;-141.97;45.06;46079.78;4994752;28;20238;-93
2024/01/12 08:37:06;;;;;;;21.33;7.97;;;;;;;-141.97;44.96;46091.31;4982749;28;20422;-93
2024/01/12 08:39:33;;;;;;;20.47;9.83;;;;;;;-141.97;44.47;46254.59;4981152;28;20893;-93
2024/01/12 08:41:58;;;;;;;17.13;9.23;;;;;;;-141.97;43.61;46212.34;5012032;28;20429;-92
2024/01/12 08:44:24;;;;;;;19.00;8.87;;;;;;;-141.97;43.60;46448.66;5017954;28;20447;-91
2024/01/12 08:46:52;;;;;;;25.13;13.00;;;;;;;-141.97;43.31;46252.69;5019698;28;20197;-92
2024/01/12 08:49:18;;;;;;;13.97;7.17;;;;;;;-141.97;43.35;46490.94;5035504;28;20558;-91
2024/01/12 08:51:44;;;;;;;29.73;13.47;;;;;;;-141.97;44.03;46039.44;5009367;28;20456;-92
2024/01/12 08:54:09;;;;;;;20.87;10.30;;;;;;;-141.97;44.35;46350.69;5027376;28;20196;-93
2024/01/12 08:56:35;;;;;;;20.57;9.50;;;;;;;-141.97;44.62;46122.03;5025404;28;20173;-92
2024/01/12 08:59:01;;;;;;;29.37;12.87;;;;;;;-141.97;44.86;46058.63;5006469;28;20222;-93
2024/01/12 09:01:26;;;;;;;16.43;8.10;;;;;;;-141.97;43.57;46233.47;5007301;28;20385;-94
2024/01/12 09:03:52;;;;;;;17.57;9.30;;;;;;;-141.97;42.73;46047.13;5008971;28;20170;-92
2024/01/12 09:06:23;;;;;;;15.87;7.23;;;;;;;-141.97;42.95;46160.47;5023576;28;20210;-94
2024/01/12 09:08:50;;;;;;;20.00;8.17;;;;;;;-141.97;42.40;46147.03;5024082;28;20176;-92
2024/01/12 09:11:16;;;;;;;20.90;8.53;;;;;;;-141.97;43.53;46210.41;5012305;28;20446;-93
2024/01/12 09:13:44;;;;;;;32.63;12.43;;;;;;;-141.97;43.40;45910.72;5018840;28;20608;-92
2024/01/12 09:16:10;;;;;;;19.27;9.80;;;;;;;-141.97;42.33;46095.16;5019972;28;20183;-93
2024/01/12 09:18:36;;;;;;;17.30;9.73;;;;;;;-141.97;42.57;45960.66;5005341;28;20421;-92
2024/01/12 09:21:02;;;;;;;16.83;8.70;;;;;;;-141.97;42.48;45954.91;5011382;28;20512;-91
2024/01/12 09:23:28;;;;;;;18.70;9.07;;;;;;;-141.97;42.86;46404.47;5023162;28;20343;-92
2024/01/12 09:25:54;;;;;;;21.90;10.63;;;;;;;-141.97;42.32;46631.22;5006493;28;20472;-92
2024/01/12 09:28:20;;;;;;;19.93;9.93;;;;;;;-141.97;42.79;46200.81;5000905;28;20265;-92
2024/01/12 09:30:47;;;;;;;15.70;7.73;;;;;;;-141.97;42.70;46408.31;5004626;28;20215;-92
2024/01/12 09:33:13;;;;;;;15.63;8.30;;;;;;;-141.97;42.68;46619.69;5005756;28;20183;-93
2024/01/12 09:35:38;;;;;;;14.87;7.97;;;;;;;-141.97;42.75;46602.38;5003964;28;20412;-93
2024/01/12 09:38:05;;;;;;;18.50;9.97;;;;;;;-141.97;42.47;46039.44;5003014;28;20413;-92
2024/01/12 09:40:31;;;;;;;18.47;8.53;;;;;;;-141.97;42.27;46147.03;5003521;28;20252;-93
2024/01/12 09:42:59;;;;;;;17.57;8.63;;;;;;;-141.97;42.06;45897.25;4999845;28;20410;-95
2024/01/12 09:45:26;;;;;;;19.33;9.80;;;;;;;-141.97;42.86;46102.81;5000417;28;20171;-92
2024/01/12 09:47:52;;;;;;;20.77;9.77;;;;;;;-141.97;43.40;46008.69;4998416;28;20493;-93
2024/01/12 09:50:24;;;;;;;23.27;12.37;;;;;;;-141.97;42.56;46202.72;5005105;28;20635;-93
2024/01/12 09:52:53;;;;;;;23.47;12.47;;;;;;;-141.97;41.49;46049.03;5006847;28;20409;-93
2024/01/12 09:55:21;;;;;;;19.00;9.30;;;;;;;-141.97;41.62;46585.09;5010123;28;20581;-91
2024/01/12 09:57:49;;;;;;;18.83;8.30;;;;;;;-141.97;41.43;46619.69;5015415;28;20532;-93
2024/01/12 10:00:15;;;;;;;20.93;9.53;;;;;;;-141.97;41.24;46485.19;5027720;28;20416;-92
2024/01/12 10:02:42;;;;;;;20.73;10.00;;;;;;;-141.97;41.00;45952.97;5029066;28;20415;-94
2024/01/12 10:05:13;;;;;;;16.83;8.83;;;;;;;-141.97;40.98;46533.22;5029720;28;20447;-93
2024/01/12 10:07:39;;;;;;;17.80;9.97;;;;;;;-141.97;40.78;46177.75;5024424;28;20182;-94
2024/01/12 10:10:11;;;;;;;13.57;7.90;;;;;;;-141.97;40.28;46202.72;5020101;28;20459;-93
2024/01/12 10:12:39;;;;;;;26.70;13.23;;;;;;;-141.97;40.36;46058.63;5019838;28;20182;-93
2024/01/12 10:15:10;;;;;;;18.00;9.23;;;;;;;-141.97;41.10;46196.97;5030694;28;20484;-91
2024/01/12 10:17:35;;;;;;;13.97;7.50;;;;;;;-141.97;40.95;46031.75;5025343;28;20428;-94
2024/01/12 10:20:06;;;;;;;12.77;7.60;;;;;;;-141.97;40.82;46554.34;5031198;28;20496;-92
2024/01/12 10:22:35;;;;;;;16.63;8.23;;;;;;;-141.97;41.61;46412.16;5029485;28;20627;-94
2024/01/12 10:25:11;;;;;;;19.47;7.80;;;;;;;-141.97;40.13;45958.75;5030233;28;20423;-93
2024/01/12 10:28:06;;;;;;;21.50;10.77;;;;;;;-141.97;39.53;45891.50;5030331;28;20471;-94
2024/01/12 10:31:07;;;;;;;15.10;7.40;;;;;;;-141.97;37.66;46156.63;4953859;29;20464;-94
2024/01/12 10:33:35;;;;;;;24.37;11.23;;;;;;;-141.97;39.16;45908.78;4950241;29;20427;-94
2024/01/12 10:36:23;;;;;;;12.67;7.37;;;;;;;-141.97;37.90;46294.97;4926318;29;20434;-93
2024/01/12 10:38:53;;;;;;;23.13;9.13;;;;;;;-141.97;38.15;46439.06;4919772;29;20422;-92
2024/01/12 10:41:25;;;;;;;23.83;10.27;;;;;;;-141.97;38.29;46173.91;4920793;29;20422;-92
2024/01/12 10:43:53;;;;;;;21.13;9.63;;;;;;;-141.97;38.33;45951.06;4908726;29;20486;-93
2024/01/12 10:46:40;;;;;;;26.87;12.93;;;;;;;-141.97;39.01;46189.28;4900464;29;20567;-93
2024/01/12 10:49:15;;;;;;;19.10;8.63;;;;;;;-141.97;39.56;46212.34;4905910;29;20433;-93
2024/01/12 10:51:50;;;;;;;17.70;8.07;;;;;;;-141.97;39.55;46189.28;4901606;29;20533;-92
2024/01/12 10:54:28;;;;;;;23.47;9.10;;;;;;;-141.97;39.45;46158.53;4899968;29;20450;-92
2024/01/12 10:56:55;;;;;;;18.63;8.93;;;;;;;-141.97;39.38;46131.66;4905041;29;20434;-93
2024/01/12 10:59:22;;;;;;;19.83;9.93;;;;;;;-141.97;38.57;46066.31;4902032;29;20446;-92
2024/01/12 11:01:49;;;;;;;23.10;10.87;;;;;;;-141.97;38.70;46542.81;4900705;29;20427;-93
2024/01/12 11:04:15;;;;;;;39.37;17.80;;;;;;;-141.97;38.33;46104.75;4900987;29;20517;-94
2024/01/12 11:06:45;;;;;;;28.63;11.87;;;;;;;-141.97;38.62;45956.81;4919692;28;20418;-94